createdAt,value
2022-10-31T00:00:56.770Z,16.41
2022-10-31T00:02:59.302Z,16.43
2022-10-31T00:05:01.652Z,16.42
2022-10-31T00:07:05.778Z,16.42
2022-10-31T00:09:07.843Z,16.42
2022-10-31T00:11:11.396Z,16.43
2022-10-31T00:13:15.346Z,16.42
2022-10-31T00:15:17.568Z,16.33
2022-10-31T00:17:19.927Z,16.40
2022-10-31T00:19:21.925Z,16.41
2022-10-31T00:21:25.197Z,16.40
2022-10-31T00:23:27.171Z,16.38
2022-10-31T00:25:30.595Z,16.41
2022-10-31T00:27:32.832Z,16.37
2022-10-31T00:29:35.048Z,16.37
2022-10-31T00:31:37.078Z,16.40
2022-10-31T00:33:41.044Z,16.41
2022-10-31T00:35:42.961Z,16.36
2022-10-31T00:37:45.109Z,16.37
2022-10-31T00:39:48.882Z,16.39
2022-10-31T00:41:53.376Z,16.37
2022-10-31T00:43:55.701Z,16.39
2022-10-31T00:45:57.842Z,16.40
2022-10-31T00:48:00.498Z,16.41
2022-10-31T00:50:03.273Z,16.39
2022-10-31T00:52:05.209Z,16.37
2022-10-31T00:54:07.515Z,16.33
2022-10-31T00:56:10.495Z,16.37
2022-10-31T00:58:12.640Z,16.35
2022-10-31T01:00:15.847Z,16.33
2022-10-31T01:02:18.206Z,16.31
2022-10-31T01:04:20.273Z,16.35
2022-10-31T01:06:22.255Z,16.35
2022-10-31T01:08:24.440Z,16.35
2022-10-31T01:10:26.675Z,16.36
2022-10-31T01:12:29.133Z,16.38
2022-10-31T01:14:32.585Z,16.37
2022-10-31T01:16:34.784Z,16.36
2022-10-31T01:18:40.327Z,16.36
2022-10-31T01:20:46.391Z,16.31
2022-10-31T01:22:48.630Z,16.30
2022-10-31T01:24:50.700Z,16.30
2022-10-31T01:26:54.828Z,16.31
2022-10-31T01:29:05.141Z,16.28
2022-10-31T01:31:10.027Z,16.28
2022-10-31T01:33:12.330Z,16.31
2022-10-31T01:35:14.477Z,16.29
2022-10-31T01:37:16.768Z,16.30
2022-10-31T01:39:22.126Z,16.30
2022-10-31T01:41:27.748Z,16.28
2022-10-31T01:43:54.031Z,16.22
2022-10-31T01:45:56.239Z,16.25
2022-10-31T01:47:59.016Z,16.24
2022-10-31T01:50:05.724Z,16.25
2022-10-31T01:52:13.929Z,16.25
2022-10-31T01:54:19.579Z,16.29
2022-10-31T01:56:22.855Z,16.26
2022-10-31T01:58:28.905Z,16.25
2022-10-31T02:00:33.308Z,16.27
2022-10-31T02:02:37.427Z,16.29
2022-10-31T02:04:41.395Z,16.29
2022-10-31T02:06:59.834Z,16.22
2022-10-31T02:09:04.804Z,16.28
2022-10-31T02:11:08.515Z,16.29
2022-10-31T02:13:14.074Z,16.28
2022-10-31T02:15:22.025Z,16.25
2022-10-31T02:17:24.863Z,16.23
2022-10-31T02:19:45.054Z,16.18
2022-10-31T02:22:12.994Z,16.18
2022-10-31T02:25:00.111Z,16.15
2022-10-31T02:27:13.821Z,16.19
2022-10-31T02:29:27.710Z,16.18
2022-10-31T02:31:47.663Z,16.18
2022-10-31T02:33:57.574Z,16.20
2022-10-31T02:36:28.459Z,16.20
2022-10-31T02:39:10.951Z,16.16
2022-10-31T02:41:29.366Z,16.19
2022-10-31T02:43:58.640Z,16.17
2022-10-31T02:46:32.050Z,16.16
2022-10-31T02:48:38.374Z,16.22
2022-10-31T02:50:46.347Z,16.19
2022-10-31T02:52:52.871Z,16.19
2022-10-31T02:54:55.294Z,16.22
2022-10-31T02:57:07.343Z,16.16
2022-10-31T02:59:12.229Z,16.19
2022-10-31T03:01:40.634Z,16.15
2022-10-31T03:04:08.106Z,16.17
2022-10-31T03:06:37.470Z,16.17
2022-10-31T03:08:57.110Z,16.16
2022-10-31T03:11:05.959Z,16.13
2022-10-31T03:13:20.817Z,16.11
2022-10-31T03:15:31.905Z,16.11
2022-10-31T03:17:54.949Z,16.12
2022-10-31T03:20:01.645Z,16.20
2022-10-31T03:22:11.639Z,16.16
2022-10-31T03:24:15.867Z,16.16
2022-10-31T03:26:18.861Z,16.18
2022-10-31T03:28:27.121Z,16.12
2022-10-31T03:30:30.494Z,16.15
2022-10-31T03:32:43.149Z,16.11
2022-10-31T03:34:47.282Z,16.14
2022-10-31T03:36:55.928Z,16.18
2022-10-31T03:39:00.138Z,16.17
2022-10-31T03:41:06.914Z,16.14
2022-10-31T03:43:20.338Z,16.15
2022-10-31T03:45:31.452Z,16.12
2022-10-31T03:47:35.868Z,16.13
2022-10-31T03:49:38.496Z,16.11
2022-10-31T03:51:50.359Z,16.09
2022-10-31T03:54:02.268Z,16.07
2022-10-31T03:56:14.275Z,16.05
2022-10-31T03:58:25.449Z,16.07
2022-10-31T04:00:30.866Z,16.09
2022-10-31T04:02:36.431Z,16.10
2022-10-31T04:04:40.621Z,16.11
2022-10-31T04:06:45.591Z,16.07
2022-10-31T04:08:55.391Z,16.04
2022-10-31T04:11:00.664Z,16.07
2022-10-31T04:13:08.958Z,16.06
2022-10-31T04:15:26.490Z,16.06
2022-10-31T04:17:33.382Z,16.01
2022-10-31T04:19:37.783Z,16.05
2022-10-31T04:21:40.428Z,16.07
2022-10-31T04:23:42.914Z,16.08
2022-10-31T04:26:03.341Z,16.07
2022-10-31T04:28:08.443Z,16.07
2022-10-31T04:30:14.035Z,16.02
2022-10-31T04:32:16.540Z,16.02
2022-10-31T04:34:18.702Z,16.01
2022-10-31T04:36:45.902Z,15.98
2022-10-31T04:38:51.139Z,16.03
2022-10-31T04:41:07.402Z,16.05
2022-10-31T04:43:38.173Z,16.06
2022-10-31T04:45:40.678Z,16.06
2022-10-31T04:47:44.060Z,16.05
2022-10-31T04:49:46.356Z,16.04
2022-10-31T04:51:49.118Z,16.03
2022-10-31T04:57:51.910Z,16.00
2022-10-31T04:59:55.196Z,16.02
2022-10-31T05:01:58.955Z,16.02
2022-10-31T05:04:16.564Z,15.93
2022-10-31T05:06:18.659Z,15.94
2022-10-31T05:08:21.667Z,15.95
2022-10-31T05:10:29.387Z,15.94
2022-10-31T05:12:33.877Z,15.89
2022-10-31T05:14:44.748Z,15.84
2022-10-31T05:17:15.703Z,15.77
2022-10-31T05:19:36.099Z,15.83
2022-10-31T05:21:58.236Z,15.90
2022-10-31T05:24:00.594Z,15.91
2022-10-31T05:26:03.553Z,15.84
2022-10-31T05:28:05.409Z,15.87
2022-10-31T05:30:09.175Z,15.80
2022-10-31T05:32:11.739Z,15.77
2022-10-31T05:34:48.661Z,15.80
2022-10-31T05:37:25.904Z,15.81
2022-10-31T05:39:27.811Z,15.79
2022-10-31T05:41:34.438Z,15.83
2022-10-31T05:43:51.460Z,15.84
2022-10-31T05:45:58.485Z,15.82
2022-10-31T05:48:18.879Z,15.87
2022-10-31T05:50:43.663Z,15.88
2022-10-31T05:52:46.582Z,15.87
2022-10-31T05:54:55.883Z,15.88
2022-10-31T05:56:57.742Z,15.84
2022-10-31T05:59:00.329Z,15.86
2022-10-31T06:01:02.653Z,15.86
2022-10-31T06:05:30.874Z,15.86
2022-10-31T06:07:34.998Z,15.80
2022-10-31T06:09:36.917Z,15.76
2022-10-31T06:11:38.917Z,15.81
2022-10-31T06:13:40.764Z,15.84
2022-10-31T06:15:51.475Z,15.84
2022-10-31T06:18:05.288Z,15.72
2022-10-31T06:20:14.555Z,15.75
2022-10-31T06:22:29.209Z,15.73
2022-10-31T06:24:31.385Z,15.79
2022-10-31T06:26:40.709Z,15.79
2022-10-31T06:28:43.994Z,15.84
2022-10-31T06:30:57.739Z,15.83
2022-10-31T06:33:06.481Z,15.77
2022-10-31T06:35:12.259Z,15.80
2022-10-31T06:37:16.721Z,15.80
2022-10-31T06:39:21.855Z,15.78
2022-10-31T06:41:24.495Z,15.76
2022-10-31T06:43:27.613Z,15.80
2022-10-31T06:46:05.870Z,15.79
2022-10-31T06:48:18.047Z,15.82
2022-10-31T06:50:46.005Z,15.78
2022-10-31T06:52:56.657Z,15.82
2022-10-31T06:54:58.974Z,15.88
2022-10-31T06:57:00.949Z,15.93
2022-10-31T06:59:03.992Z,15.91
2022-10-31T07:01:24.543Z,15.89
2022-10-31T07:03:26.602Z,15.86
2022-10-31T07:05:29.763Z,15.87
2022-10-31T07:07:32.409Z,15.87
2022-10-31T07:09:34.559Z,15.91
2022-10-31T07:11:39.960Z,15.92
2022-10-31T07:13:42.622Z,15.89
2022-10-31T07:15:46.280Z,15.87
2022-10-31T07:17:48.846Z,15.87
2022-10-31T07:19:50.915Z,15.92
2022-10-31T07:21:53.255Z,15.94
2022-10-31T07:23:55.193Z,15.87
2022-10-31T07:26:15.567Z,15.89
2022-10-31T07:28:23.748Z,15.92
2022-10-31T07:30:27.564Z,15.88
2022-10-31T07:32:41.005Z,15.82
2022-10-31T07:34:46.615Z,15.76
2022-10-31T07:37:04.764Z,15.73
2022-10-31T07:39:06.986Z,15.63
2022-10-31T07:41:10.966Z,15.59
2022-10-31T07:43:17.141Z,15.59
2022-10-31T07:45:38.090Z,15.63
2022-10-31T07:47:59.260Z,15.62
2022-10-31T07:50:25.495Z,15.59
2022-10-31T07:52:46.181Z,15.57
2022-10-31T07:55:19.149Z,15.52
2022-10-31T07:57:25.141Z,15.61
2022-10-31T07:59:28.339Z,15.58
2022-10-31T08:01:30.680Z,15.57
2022-10-31T08:03:54.357Z,15.61
2022-10-31T08:06:15.062Z,15.62
2022-10-31T08:08:22.747Z,15.57
2022-10-31T08:10:25.738Z,15.57
2022-10-31T08:12:27.735Z,15.57
2022-10-31T08:14:29.667Z,15.63
2022-10-31T08:16:32.841Z,15.64
2022-10-31T08:18:38.556Z,15.58
2022-10-31T08:20:44.625Z,15.66
2022-10-31T08:23:02.564Z,15.68
2022-10-31T08:25:05.507Z,15.76
2022-10-31T08:27:07.416Z,15.79
2022-10-31T08:29:09.356Z,15.82
2022-10-31T08:31:12.894Z,15.86
2022-10-31T08:33:19.429Z,15.82
2022-10-31T08:35:40.706Z,15.86
2022-10-31T08:38:15.405Z,15.86
2022-10-31T08:40:18.507Z,15.89
2022-10-31T08:42:20.556Z,15.87
2022-10-31T08:44:23.158Z,15.87
2022-10-31T08:46:25.275Z,15.88
2022-10-31T08:48:27.589Z,15.93
2022-10-31T08:50:31.325Z,15.88
2022-10-31T08:52:58.887Z,15.82
2022-10-31T08:54:55.859Z,15.87
2022-10-31T08:57:23.993Z,15.91
2022-10-31T08:59:26.158Z,15.92
2022-10-31T09:01:47.293Z,15.93
2022-10-31T09:03:50.096Z,15.86
2022-10-31T09:05:56.717Z,15.82
2022-10-31T09:08:00.677Z,15.89
2022-10-31T09:10:03.730Z,15.93
2022-10-31T09:12:09.333Z,16.01
2022-10-31T09:14:32.992Z,16.02
2022-10-31T09:16:58.124Z,16.05
2022-10-31T09:19:11.345Z,16.06
2022-10-31T09:21:14.191Z,16.04
2022-10-31T09:23:22.590Z,16.05
2022-10-31T09:25:24.872Z,16.10
2022-10-31T09:27:41.650Z,16.13
2022-10-31T09:29:43.688Z,16.13
2022-10-31T09:31:47.704Z,16.10
2022-10-31T09:34:04.226Z,16.19
2022-10-31T09:36:12.240Z,16.20
2022-10-31T09:38:20.399Z,16.22
2022-10-31T09:40:23.362Z,16.26
2022-10-31T09:42:49.283Z,16.23
2022-10-31T09:45:04.536Z,16.29
2022-10-31T09:47:14.496Z,16.35
2022-10-31T09:49:38.868Z,16.31
2022-10-31T09:51:52.945Z,16.31
2022-10-31T09:54:19.604Z,16.30
2022-10-31T09:56:23.999Z,16.37
2022-10-31T09:58:30.703Z,16.40
2022-10-31T10:00:34.391Z,16.48
2022-10-31T10:02:52.690Z,16.41
2022-10-31T10:05:09.738Z,16.45
2022-10-31T10:07:53.533Z,16.46
2022-10-31T10:10:46.911Z,16.45
2022-10-31T10:13:38.539Z,16.48
2022-10-31T10:15:43.790Z,16.57
2022-10-31T10:18:09.096Z,16.54
2022-10-31T10:20:27.243Z,16.52
2022-10-31T10:22:41.116Z,16.54
2022-10-31T10:24:57.120Z,16.57
2022-10-31T10:27:26.810Z,16.51
2022-10-31T10:29:35.722Z,16.49
2022-10-31T10:31:46.706Z,16.53
2022-10-31T10:34:11.678Z,16.51
2022-10-31T10:36:35.819Z,16.56
2022-10-31T10:38:52.460Z,16.57
2022-10-31T10:40:55.362Z,16.66
2022-10-31T10:43:16.094Z,16.71
2022-10-31T10:45:39.333Z,16.72
2022-10-31T10:47:45.241Z,16.73
2022-10-31T10:49:52.713Z,16.79
2022-10-31T10:54:55.886Z,16.84
2022-10-31T10:57:25.257Z,16.84
2022-10-31T10:59:28.279Z,16.89
2022-10-31T11:01:30.708Z,16.89
2022-10-31T11:03:36.561Z,16.86
2022-10-31T11:05:51.274Z,16.91
2022-10-31T11:07:54.335Z,16.92
2022-10-31T11:10:09.093Z,16.90
2022-10-31T11:12:31.609Z,16.96
2022-10-31T11:14:44.033Z,16.95
2022-10-31T11:16:48.942Z,17.00
2022-10-31T11:18:51.005Z,16.97
2022-10-31T11:20:56.123Z,16.98
2022-10-31T11:23:21.283Z,16.96
2022-10-31T11:25:24.720Z,17.02
2022-10-31T11:27:27.495Z,17.01
2022-10-31T11:29:29.480Z,17.02
2022-10-31T11:31:32.152Z,17.05
2022-10-31T11:33:39.289Z,17.06
2022-10-31T11:35:41.365Z,17.09
2022-10-31T11:37:45.689Z,17.09
2022-10-31T11:39:54.901Z,17.04
2022-10-31T11:42:06.237Z,17.07
2022-10-31T11:44:19.118Z,17.04
2022-10-31T11:46:28.976Z,17.11
2022-10-31T11:48:31.104Z,17.13
2022-10-31T11:50:43.587Z,17.13
2022-10-31T11:52:46.081Z,17.14
2022-10-31T11:54:55.784Z,17.14
2022-10-31T11:56:58.231Z,17.18
2022-10-31T11:59:04.385Z,17.16
2022-10-31T12:01:06.860Z,17.16
2022-10-31T12:03:15.267Z,17.13
2022-10-31T12:05:26.209Z,17.14
2022-10-31T12:08:09.140Z,17.15
2022-10-31T12:10:13.067Z,17.20
2022-10-31T12:12:34.333Z,17.13
2022-10-31T12:14:42.135Z,17.19
2022-10-31T12:16:55.349Z,17.19
2022-10-31T12:19:12.455Z,17.25
2022-10-31T12:21:24.317Z,17.23
2022-10-31T12:23:50.694Z,17.23
2022-10-31T12:26:04.971Z,17.30
2022-10-31T12:28:31.775Z,17.29
2022-10-31T12:31:11.281Z,17.28
2022-10-31T12:33:34.837Z,17.24
2022-10-31T12:36:14.412Z,17.29
2022-10-31T12:38:54.988Z,17.27
2022-10-31T12:41:08.152Z,17.28
2022-10-31T12:43:28.599Z,17.28
2022-10-31T12:45:52.184Z,17.19
2022-10-31T12:48:57.453Z,17.24
2022-10-31T12:51:21.987Z,17.24
2022-10-31T12:54:00.810Z,17.20
2022-10-31T12:56:16.964Z,17.19
2022-10-31T12:58:25.684Z,17.23
2022-10-31T13:00:30.465Z,17.31
2022-10-31T13:02:45.667Z,17.30
2022-10-31T13:04:59.602Z,17.26
2022-10-31T13:07:08.864Z,17.31
2022-10-31T13:09:16.920Z,17.33
2022-10-31T13:11:32.006Z,17.32
2022-10-31T13:14:09.368Z,17.19
2022-10-31T13:16:18.736Z,17.11
2022-10-31T13:18:34.736Z,17.08
2022-10-31T13:20:49.357Z,17.03
2022-10-31T13:23:17.637Z,17.05
2022-10-31T13:25:29.986Z,17.02
2022-10-31T13:27:59.247Z,17.01
2022-10-31T13:30:26.318Z,17.06
2022-10-31T13:32:38.793Z,17.06
2022-10-31T13:34:47.060Z,17.09
2022-10-31T13:37:22.990Z,17.11
2022-10-31T13:39:40.277Z,17.16
2022-10-31T13:41:51.064Z,17.11
2022-10-31T13:44:07.359Z,17.10
2022-10-31T13:46:25.433Z,17.14
2022-10-31T13:48:43.367Z,17.15
2022-10-31T13:51:03.847Z,17.17
2022-10-31T13:53:17.849Z,17.19
2022-10-31T13:55:47.176Z,17.19
2022-10-31T13:57:49.431Z,17.27
2022-10-31T13:59:58.217Z,17.23
2022-10-31T14:02:03.564Z,17.27
2022-10-31T14:04:14.874Z,17.27
2022-10-31T14:06:48.261Z,17.20
2022-10-31T14:09:27.853Z,17.15
2022-10-31T14:11:34.502Z,17.22
2022-10-31T14:13:45.810Z,17.19
2022-10-31T14:16:06.266Z,17.25
2022-10-31T14:18:31.286Z,17.22
2022-10-31T14:20:43.238Z,17.26
2022-10-31T14:22:48.356Z,17.23
2022-10-31T14:24:51.665Z,17.26
2022-10-31T14:26:59.336Z,17.24
2022-10-31T14:29:16.912Z,17.22
2022-10-31T14:31:42.352Z,17.20
2022-10-31T14:33:45.508Z,17.22
2022-10-31T14:35:59.706Z,17.24
2022-10-31T14:38:16.000Z,17.15
2022-10-31T14:40:37.167Z,17.23
2022-10-31T14:43:03.847Z,17.18
2022-10-31T14:45:17.103Z,17.17
2022-10-31T14:47:37.408Z,17.14
2022-10-31T14:50:08.312Z,17.08
2022-10-31T14:52:17.877Z,17.02
2022-10-31T14:54:28.788Z,16.95
2022-10-31T14:56:37.217Z,16.97
2022-10-31T14:58:46.836Z,16.95
2022-10-31T15:00:50.678Z,16.99
2022-10-31T15:03:19.763Z,16.94
2022-10-31T15:05:22.695Z,17.01
2022-10-31T15:07:26.781Z,17.04
2022-10-31T15:10:01.012Z,16.97
2022-10-31T15:12:22.764Z,16.94
2022-10-31T15:14:31.224Z,16.92
2022-10-31T15:16:37.054Z,16.97
2022-10-31T15:18:50.323Z,16.96
2022-10-31T15:20:54.830Z,16.99
2022-10-31T15:22:58.453Z,17.02
2022-10-31T15:25:00.662Z,17.02
2022-10-31T15:27:05.226Z,17.01
2022-10-31T15:29:14.610Z,16.97
2022-10-31T15:31:18.493Z,17.00
2022-10-31T15:33:37.902Z,16.98
2022-10-31T15:35:41.305Z,16.95
2022-10-31T15:37:43.566Z,16.94
2022-10-31T15:39:47.593Z,16.95
2022-10-31T15:41:56.147Z,16.92
2022-10-31T15:44:04.457Z,16.93
2022-10-31T15:46:11.307Z,16.95
2022-10-31T15:48:35.616Z,16.89
2022-10-31T15:50:41.674Z,16.95
2022-10-31T15:52:49.003Z,16.92
2022-10-31T15:54:57.174Z,16.92
2022-10-31T15:56:59.465Z,16.94
2022-10-31T15:59:03.324Z,16.90
2022-10-31T16:01:08.006Z,16.91
2022-10-31T16:03:18.851Z,16.90
2022-10-31T16:05:21.331Z,16.87
2022-10-31T16:07:24.366Z,16.87
2022-10-31T16:09:26.906Z,16.88
2022-10-31T16:11:40.008Z,16.84
2022-10-31T16:13:58.425Z,16.82
2022-10-31T16:16:32.934Z,16.86
2022-10-31T16:18:27.887Z,16.84
2022-10-31T16:20:33.111Z,16.81
2022-10-31T16:22:39.727Z,16.81
2022-10-31T16:24:56.984Z,16.79
2022-10-31T16:27:08.169Z,16.78
2022-10-31T16:29:29.606Z,16.71
2022-10-31T16:31:40.670Z,16.71
2022-10-31T16:33:43.321Z,16.71
2022-10-31T16:35:45.362Z,16.70
2022-10-31T16:37:47.865Z,16.66
2022-10-31T16:39:50.349Z,16.63
2022-10-31T16:45:27.131Z,16.58
2022-10-31T16:47:29.692Z,16.58
2022-10-31T16:49:31.611Z,16.59
2022-10-31T16:51:33.594Z,16.57
2022-10-31T16:53:35.987Z,16.55
2022-10-31T16:55:55.220Z,16.52
2022-10-31T16:57:59.408Z,16.55
2022-10-31T17:00:01.798Z,16.48
2022-10-31T17:02:05.487Z,16.46
2022-10-31T17:04:12.247Z,16.50
2022-10-31T17:06:15.277Z,16.49
2022-10-31T17:08:17.667Z,16.50
2022-10-31T17:10:22.058Z,16.54
2022-10-31T17:12:27.929Z,16.55
2022-10-31T17:14:30.467Z,16.61
2022-10-31T17:16:32.633Z,16.63
2022-10-31T17:18:34.594Z,16.64
2022-10-31T17:20:37.201Z,16.59
2022-10-31T17:24:42.228Z,16.54
2022-10-31T17:26:44.130Z,16.54
2022-10-31T17:28:46.721Z,16.59
2022-10-31T17:30:48.666Z,16.59
2022-10-31T17:32:51.784Z,16.54
2022-10-31T17:34:53.456Z,16.52
2022-10-31T17:36:55.214Z,16.51
2022-10-31T17:38:57.435Z,16.52
2022-10-31T17:40:59.329Z,16.47
2022-10-31T17:43:01.390Z,16.42
2022-10-31T17:45:04.550Z,16.43
2022-10-31T17:47:06.767Z,16.43
2022-10-31T17:49:09.269Z,16.48
2022-10-31T17:51:11.508Z,16.45
2022-10-31T17:53:13.228Z,16.42
2022-10-31T17:55:16.213Z,16.44
2022-10-31T17:57:18.830Z,16.43
2022-10-31T17:59:20.861Z,16.41
2022-10-31T18:01:22.722Z,16.42
2022-10-31T18:03:25.386Z,16.36
2022-10-31T18:05:27.299Z,16.36
2022-10-31T18:07:29.158Z,16.40
2022-10-31T18:09:31.130Z,16.45
2022-10-31T18:11:33.290Z,16.43
2022-10-31T18:13:35.907Z,16.42
2022-10-31T18:15:40.891Z,16.37
2022-10-31T18:17:42.834Z,16.36
2022-10-31T18:19:46.154Z,16.42
2022-10-31T18:21:48.139Z,16.39
2022-10-31T18:23:54.918Z,16.33
2022-10-31T18:25:57.487Z,16.39
2022-10-31T18:27:59.513Z,16.38
2022-10-31T18:30:01.554Z,16.32
2022-10-31T18:32:09.075Z,16.31
2022-10-31T18:34:11.107Z,16.30
2022-10-31T18:36:13.487Z,16.29
2022-10-31T18:38:15.273Z,16.29
2022-10-31T18:40:17.593Z,16.27
2022-10-31T18:42:19.553Z,16.30
2022-10-31T18:44:21.570Z,16.31
2022-10-31T18:46:23.284Z,16.33
2022-10-31T18:48:25.217Z,16.36
2022-10-31T18:50:27.346Z,16.33
2022-10-31T18:52:32.366Z,16.36
2022-10-31T18:54:34.475Z,16.36
2022-10-31T18:56:38.002Z,16.37
2022-10-31T19:02:40.298Z,16.31
2022-10-31T19:04:42.213Z,16.31
2022-10-31T19:06:44.036Z,16.24
2022-10-31T19:08:46.038Z,16.32
2022-10-31T19:10:48.261Z,16.25
2022-10-31T19:12:50.182Z,16.30
2022-10-31T19:18:46.542Z,16.30
2022-10-31T19:20:48.447Z,16.29
2022-10-31T19:22:53.133Z,16.32
2022-10-31T19:24:54.898Z,16.33
2022-10-31T19:26:56.753Z,16.35
2022-10-31T19:28:58.801Z,16.35
2022-10-31T19:31:03.978Z,16.27
2022-10-31T19:33:06.070Z,16.34
2022-10-31T19:35:09.406Z,16.33
2022-10-31T19:37:11.569Z,16.33
2022-10-31T19:39:13.526Z,16.33
2022-10-31T19:41:26.264Z,16.30
2022-10-31T19:43:28.679Z,16.35
2022-10-31T19:48:53.029Z,16.31
2022-10-31T19:51:01.813Z,16.27
2022-10-31T19:53:06.272Z,16.31
2022-10-31T19:55:08.659Z,16.26
2022-10-31T19:57:10.773Z,16.23
2022-10-31T19:59:12.959Z,16.17
2022-10-31T20:01:16.476Z,16.16
2022-10-31T20:03:21.596Z,16.10
2022-10-31T20:05:24.602Z,16.12
2022-10-31T20:07:26.643Z,16.15
2022-10-31T20:09:28.782Z,16.14
2022-10-31T20:11:31.438Z,16.17
2022-10-31T20:13:33.980Z,16.20
2022-10-31T20:15:36.115Z,16.23
2022-10-31T20:17:38.885Z,16.18
2022-10-31T20:19:41.320Z,16.19
2022-10-31T20:21:43.411Z,16.25
2022-10-31T20:23:47.296Z,16.24
2022-10-31T20:25:50.238Z,16.24
2022-10-31T20:27:52.199Z,16.15
2022-10-31T20:29:54.258Z,16.10
2022-10-31T20:31:57.449Z,16.12
2022-10-31T20:34:01.932Z,16.07
2022-10-31T20:36:05.546Z,16.04
2022-10-31T20:38:08.643Z,16.06
2022-10-31T20:40:11.368Z,16.05
2022-10-31T20:42:13.816Z,16.10
2022-10-31T20:44:16.214Z,16.13
2022-10-31T20:46:21.299Z,16.11
2022-10-31T20:48:24.857Z,16.19
2022-10-31T20:50:26.998Z,16.23
2022-10-31T20:52:28.957Z,16.19
2022-10-31T20:54:33.305Z,16.21
2022-10-31T20:56:35.415Z,16.24
2022-10-31T20:58:39.027Z,16.24
2022-10-31T21:00:40.856Z,16.24
2022-10-31T21:02:43.861Z,16.21
2022-10-31T21:04:45.804Z,16.21
2022-10-31T21:06:49.581Z,16.14
2022-10-31T21:08:52.526Z,16.02
2022-10-31T21:10:55.101Z,16.00
2022-10-31T21:12:57.253Z,15.98
2022-10-31T21:14:59.395Z,15.99
2022-10-31T21:17:01.527Z,16.06
2022-10-31T21:19:05.091Z,16.13
2022-10-31T21:21:13.080Z,16.05
2022-10-31T21:23:15.106Z,16.00
2022-10-31T21:25:18.543Z,15.98
2022-10-31T21:27:20.610Z,15.98
2022-10-31T21:29:22.549Z,15.97
2022-10-31T21:32:14.321Z,15.87
2022-10-31T21:34:16.707Z,15.90
2022-10-31T21:36:19.083Z,15.94
2022-10-31T21:38:21.124Z,15.96
2022-10-31T21:40:23.123Z,15.98
2022-10-31T21:42:25.164Z,16.01
2022-10-31T21:44:27.200Z,16.01
2022-10-31T21:46:31.365Z,16.01
2022-10-31T21:48:34.327Z,16.04
2022-10-31T21:50:36.339Z,16.04
2022-10-31T21:52:38.648Z,16.07
2022-10-31T21:54:40.535Z,16.09
2022-10-31T21:56:59.301Z,16.05
2022-10-31T21:59:02.100Z,16.13
2022-10-31T22:01:29.746Z,16.08
2022-10-31T22:03:36.176Z,16.08
2022-10-31T22:05:38.379Z,16.08
2022-10-31T22:07:40.433Z,15.98
2022-10-31T22:09:47.330Z,15.99
2022-10-31T22:11:49.630Z,15.97
2022-10-31T22:13:54.274Z,15.95
2022-10-31T22:16:00.912Z,15.81
2022-10-31T22:18:05.545Z,15.87
2022-10-31T22:20:08.664Z,15.85
2022-10-31T22:22:13.196Z,15.78
2022-10-31T22:24:16.920Z,15.83
2022-10-31T22:26:21.941Z,15.85
2022-10-31T22:28:24.041Z,15.84
2022-10-31T22:30:25.940Z,15.88
2022-10-31T22:32:28.394Z,15.90
2022-10-31T22:34:32.725Z,15.90
2022-10-31T22:36:35.059Z,15.86
2022-10-31T22:38:40.407Z,15.81
2022-10-31T22:40:42.554Z,15.78
2022-10-31T22:42:44.538Z,15.79
2022-10-31T22:44:46.649Z,15.73
2022-10-31T22:46:49.140Z,15.74
2022-10-31T22:49:00.181Z,15.64
2022-10-31T22:51:07.403Z,15.62
2022-10-31T22:53:13.522Z,15.64
2022-10-31T22:55:17.490Z,15.61
2022-10-31T22:57:19.768Z,15.53
2022-10-31T22:59:21.870Z,15.55
2022-10-31T23:01:27.136Z,15.53
2022-10-31T23:03:29.439Z,15.55
2022-10-31T23:05:31.476Z,15.49
2022-10-31T23:07:33.550Z,15.57
2022-10-31T23:09:35.992Z,15.57
2022-10-31T23:11:39.885Z,15.58
2022-10-31T23:14:00.510Z,15.52
2022-10-31T23:16:05.609Z,15.49
2022-10-31T23:18:14.587Z,15.50
2022-10-31T23:20:26.455Z,15.41
2022-10-31T23:22:28.429Z,15.42
2022-10-31T23:24:41.740Z,15.31
2022-10-31T23:33:40.912Z,15.28
2022-10-31T23:35:43.886Z,15.29
2022-10-31T23:37:45.978Z,15.27
2022-10-31T23:39:50.801Z,15.24
2022-10-31T23:41:56.075Z,15.18
2022-10-31T23:43:58.322Z,15.19
2022-10-31T23:46:00.309Z,15.12
2022-10-31T23:48:02.603Z,15.21
2022-10-31T23:50:05.320Z,15.22
2022-10-31T23:52:07.495Z,15.27
2022-10-31T23:54:09.783Z,15.33
2022-10-31T23:56:12.436Z,15.29
2022-10-31T23:58:15.879Z,15.26
